Time;durP1;ratioP1;P1;durP2;ratioP2;P2;SDS_P1;SDS_P2;PMS_P1;PMS_P2;Temp;Humidity;BMP_temperature;BMP_pressure;BME280_temperature;BME280_humidity;BME280_pressure;Samples;Min_cycle;Max_cycle;Signal;HPM_P1;HPM_P2
2023/07/07 00:02:23;;;;;;;15.93;8.48;;;;;;;32.86;41.78;99364.50;5042772;28;20062;-72
2023/07/07 00:04:50;;;;;;;17.55;8.50;;;;;;;32.81;41.64;99378.34;5042699;28;20069;-71
2023/07/07 00:07:16;;;;;;;19.13;8.00;;;;;;;32.96;41.38;99370.59;5060062;28;20032;-71
2023/07/07 00:09:42;;;;;;;20.70;8.52;;;;;;;32.95;41.46;99376.41;5059899;28;20444;-70
2023/07/07 00:12:08;;;;;;;14.07;8.50;;;;;;;32.74;42.02;99373.28;5042371;28;20475;-71
2023/07/07 00:14:34;;;;;;;13.13;8.57;;;;;;;32.93;41.54;99379.47;5042727;28;20038;-71
2023/07/07 00:17:01;;;;;;;11.10;8.20;;;;;;;32.87;42.15;99377.13;5059772;28;20047;-71
2023/07/07 00:19:36;;;;;;;12.85;8.85;;;;;;;32.78;42.49;99384.47;5075743;28;20073;-71
2023/07/07 00:22:05;;;;;;;12.82;8.30;;;;;;;32.93;42.02;99375.91;5059965;28;20032;-71
2023/07/07 00:24:33;;;;;;;11.80;8.40;;;;;;;32.94;41.95;99389.34;5076186;28;20089;-71
2023/07/07 00:26:59;;;;;;;12.15;8.65;;;;;;;33.01;41.66;99383.44;5042493;28;20101;-71
2023/07/07 00:29:25;;;;;;;12.60;8.48;;;;;;;32.95;41.77;99390.19;5026268;28;20060;-71
2023/07/07 00:31:51;;;;;;;12.55;8.32;;;;;;;33.03;41.40;99392.19;5042450;28;20071;-71
2023/07/07 00:34:17;;;;;;;15.50;8.00;;;;;;;33.00;41.36;99384.56;5042298;28;20105;-72
2023/07/07 00:36:43;;;;;;;11.27;9.10;;;;;;;32.91;41.80;99383.66;5042158;28;20040;-70
2023/07/07 00:39:09;;;;;;;14.10;8.60;;;;;;;33.04;41.72;99382.81;5041999;28;20578;-70
2023/07/07 00:41:35;;;;;;;15.43;9.45;;;;;;;32.90;41.96;99380.09;5042077;28;20135;-72
2023/07/07 00:44:05;;;;;;;15.05;9.07;;;;;;;32.75;42.80;99372.16;5042057;28;20039;-71
2023/07/07 00:46:31;;;;;;;17.60;9.17;;;;;;;32.57;43.02;99367.59;5042104;28;20028;-71
2023/07/07 00:49:03;;;;;;;15.70;8.60;;;;;;;32.81;42.54;99353.59;5042389;28;20032;-71
2023/07/07 00:51:40;;;;;;;15.82;9.32;;;;;;;32.81;42.62;99348.91;5042105;28;20097;-71
2023/07/07 00:54:13;;;;;;;16.00;8.95;;;;;;;32.99;42.61;99360.91;5041911;28;20039;-71
2023/07/07 00:56:43;;;;;;;14.88;9.52;;;;;;;32.94;42.46;99366.53;5041815;28;20470;-71
2023/07/07 00:59:13;;;;;;;16.33;9.18;;;;;;;32.86;42.61;99353.50;5041677;28;20038;-71
2023/07/07 01:01:41;;;;;;;15.02;8.65;;;;;;;32.76;42.57;99350.94;5041862;28;20036;-71
2023/07/07 01:04:10;;;;;;;20.48;9.65;;;;;;;32.80;42.63;99349.22;5058255;28;20126;-71
2023/07/07 01:06:41;;;;;;;16.90;9.10;;;;;;;32.57;43.47;99340.91;5058092;28;20046;-72
2023/07/07 01:09:11;;;;;;;14.93;9.43;;;;;;;32.38;43.86;99342.97;5041557;28;20035;-71
2023/07/07 01:11:39;;;;;;;18.42;10.05;;;;;;;32.49;43.38;99354.59;5091622;28;20047;-70
2023/07/07 01:14:11;;;;;;;14.82;9.88;;;;;;;32.67;43.44;99357.19;5041763;28;20039;-71
2023/07/07 01:17:04;;;;;;;13.10;9.27;;;;;;;32.85;43.12;99338.91;5074726;28;20058;-71
2023/07/07 01:19:56;;;;;;;16.38;9.52;;;;;;;32.81;43.28;99348.09;5076914;28;20039;-71
2023/07/07 01:22:53;;;;;;;16.92;9.60;;;;;;;32.79;43.46;99336.56;5077185;28;20082;-71
2023/07/07 01:25:28;;;;;;;16.95;9.75;;;;;;;32.64;43.89;99333.03;5060214;28;20043;-71
2023/07/07 01:27:55;;;;;;;15.32;10.35;;;;;;;32.32;44.26;99333.19;5060254;28;20036;-71
2023/07/07 01:30:33;;;;;;;17.33;9.77;;;;;;;32.56;44.18;99328.31;5076857;28;20036;-71
2023/07/07 01:33:01;;;;;;;17.05;9.88;;;;;;;32.46;44.17;99312.00;5028447;28;20479;-71
2023/07/07 01:35:27;;;;;;;14.60;9.90;;;;;;;32.26;44.33;99315.16;5061650;28;20047;-71
2023/07/07 01:37:58;;;;;;;21.13;10.15;;;;;;;32.67;43.81;99306.88;5044818;28;20126;-71
2023/07/07 01:40:36;;;;;;;18.73;9.80;;;;;;;32.83;43.35;99308.13;5026361;28;20108;-71
2023/07/07 01:43:07;;;;;;;15.98;9.70;;;;;;;32.79;43.26;99303.56;5026832;28;20045;-73
2023/07/07 01:45:59;;;;;;;13.25;9.60;;;;;;;32.71;43.71;99291.38;5010194;28;20045;-71
2023/07/07 01:49:00;;;;;;;21.48;9.70;;;;;;;32.63;44.01;99284.69;4977779;28;20049;-70
2023/07/07 01:51:30;;;;;;;14.77;10.38;;;;;;;32.57;44.20;99277.66;4968490;28;20058;-71
2023/07/07 01:53:58;;;;;;;15.93;10.50;;;;;;;32.63;44.00;99281.09;4994052;28;20473;-71
2023/07/07 01:56:27;;;;;;;16.92;9.88;;;;;;;32.49;44.18;99266.59;4974016;28;20382;-71
2023/07/07 01:58:54;;;;;;;19.45;10.50;;;;;;;32.50;44.43;99276.47;4958141;28;20062;-71
2023/07/07 02:01:21;;;;;;;13.10;9.68;;;;;;;32.42;44.38;99279.94;4990271;28;20054;-71
2023/07/07 02:03:47;;;;;;;13.65;10.27;;;;;;;32.34;44.28;99275.97;4958367;28;20097;-72
2023/07/07 02:06:15;;;;;;;16.10;10.05;;;;;;;32.51;43.47;99272.59;4958967;28;20458;-71
2023/07/07 02:08:40;;;;;;;19.75;10.88;;;;;;;32.33;44.29;99277.09;4993646;28;20030;-71
2023/07/07 02:11:06;;;;;;;16.52;10.52;;;;;;;32.13;45.22;99279.47;4933004;28;20140;-71
2023/07/07 02:13:34;;;;;;;13.68;10.32;;;;;;;32.49;44.56;99283.88;5017655;28;20040;-71
2023/07/07 02:16:02;;;;;;;19.48;9.98;;;;;;;32.63;43.92;99281.91;5001163;28;20060;-71
2023/07/07 02:18:29;;;;;;;12.05;9.75;;;;;;;32.18;44.56;99268.38;4984699;28;20037;-71
2023/07/07 02:20:56;;;;;;;18.85;8.90;;;;;;;32.64;43.39;99277.25;4981222;28;20076;-71
2023/07/07 02:23:21;;;;;;;15.27;10.23;;;;;;;32.56;43.80;99284.31;4949193;28;20042;-71
2023/07/07 02:25:48;;;;;;;17.48;10.05;;;;;;;32.60;43.54;99281.72;4965361;28;20052;-71
2023/07/07 02:28:15;;;;;;;16.00;10.20;;;;;;;32.54;43.78;99280.22;5035514;28;20113;-71
2023/07/07 02:30:41;;;;;;;21.08;10.32;;;;;;;32.58;43.83;99281.25;5026934;28;20044;-71
2023/07/07 02:33:08;;;;;;;16.38;10.90;;;;;;;32.49;44.07;99272.91;5027191;28;20046;-71
2023/07/07 02:35:35;;;;;;;25.88;10.98;;;;;;;32.96;42.95;99282.53;5027280;28;20047;-71
2023/07/07 02:38:01;;;;;;;17.35;10.15;;;;;;;32.90;42.95;99281.06;5059995;28;20039;-71
2023/07/07 02:40:29;;;;;;;14.30;9.98;;;;;;;33.04;43.03;99301.06;5043550;28;20439;-71
2023/07/07 02:42:55;;;;;;;16.35;10.23;;;;;;;32.72;43.05;99294.94;5060162;28;20044;-71
2023/07/07 02:45:21;;;;;;;15.52;10.15;;;;;;;32.81;43.10;99295.81;5027692;28;20044;-71
2023/07/07 02:47:47;;;;;;;16.25;10.25;;;;;;;32.54;43.86;99297.53;5027367;28;20039;-71
2023/07/07 02:50:13;;;;;;;18.52;10.35;;;;;;;32.56;44.04;99302.72;5027377;28;20063;-71
2023/07/07 02:52:40;;;;;;;24.02;10.43;;;;;;;32.66;43.91;99296.97;5043037;28;20067;-72
2023/07/07 02:55:07;;;;;;;18.13;10.15;;;;;;;32.72;44.16;99302.06;5062640;28;20100;-72
2023/07/07 02:57:35;;;;;;;16.65;10.02;;;;;;;32.81;43.84;99307.66;5044702;28;20130;-71
2023/07/07 03:00:01;;;;;;;16.38;10.38;;;;;;;32.80;43.85;99291.47;5060655;28;20040;-71
2023/07/07 03:02:27;;;;;;;18.50;10.02;;;;;;;32.87;43.75;99289.94;5044293;28;20054;-72
2023/07/07 03:04:53;;;;;;;12.85;9.40;;;;;;;32.77;44.18;99292.09;5061731;28;20051;-71
2023/07/07 03:07:19;;;;;;;12.93;9.55;;;;;;;32.72;44.05;99296.56;5061199;28;20463;-71
2023/07/07 03:09:48;;;;;;;17.73;9.57;;;;;;;33.10;43.80;99305.31;5044350;28;20024;-71
2023/07/07 03:12:16;;;;;;;19.77;9.45;;;;;;;33.11;43.01;99315.19;5060700;28;20044;-71
2023/07/07 03:14:46;;;;;;;17.92;9.15;;;;;;;33.22;42.77;99313.81;5060111;28;20135;-71
2023/07/07 03:17:16;;;;;;;14.13;9.68;;;;;;;32.97;43.65;99338.41;5043135;28;20043;-71
2023/07/07 03:19:44;;;;;;;14.43;9.23;;;;;;;33.08;43.25;99323.25;5027532;28;20167;-71
2023/07/07 03:22:16;;;;;;;17.88;9.85;;;;;;;33.08;43.84;99326.81;5044586;28;20181;-71
2023/07/07 03:24:56;;;;;;;16.55;9.63;;;;;;;33.16;44.37;99330.75;5029774;28;20056;-71
2023/07/07 03:27:37;;;;;;;14.35;9.30;;;;;;;32.92;44.26;99322.00;5045498;28;20031;-71
2023/07/07 03:30:06;;;;;;;18.02;8.77;;;;;;;32.89;44.55;99314.38;5042965;28;20059;-71
2023/07/07 03:32:47;;;;;;;19.23;8.82;;;;;;;33.04;43.56;99311.25;5061207;28;20043;-71
2023/07/07 03:35:14;;;;;;;17.13;8.73;;;;;;;33.09;43.67;99300.91;5075780;28;20032;-71
2023/07/07 03:37:40;;;;;;;15.98;8.32;;;;;;;32.95;43.88;99315.88;5026094;28;20089;-71
2023/07/07 03:40:09;;;;;;;15.18;8.73;;;;;;;33.18;43.40;99309.25;5042571;28;20051;-71
2023/07/07 03:42:37;;;;;;;12.27;8.18;;;;;;;33.21;43.14;99314.94;5059631;28;20135;-71
2023/07/07 03:45:08;;;;;;;12.57;8.57;;;;;;;32.93;43.85;99307.94;5043773;28;20040;-72
2023/07/07 03:47:34;;;;;;;13.70;8.75;;;;;;;32.64;44.57;99316.53;5042779;28;20127;-71
2023/07/07 03:50:01;;;;;;;17.08;8.27;;;;;;;32.64;44.76;99319.28;5041818;28;20173;-71
2023/07/07 03:52:31;;;;;;;10.48;7.53;;;;;;;32.89;44.03;99317.91;5037378;28;20348;-71
2023/07/07 03:54:58;;;;;;;11.93;8.18;;;;;;;32.93;43.89;99331.88;5059483;28;20036;-71
2023/07/07 03:57:23;;;;;;;11.38;8.00;;;;;;;32.90;44.00;99333.31;5059254;28;20068;-71
2023/07/07 03:59:51;;;;;;;11.45;8.02;;;;;;;32.98;44.28;99296.00;5059298;28;20064;-71
2023/07/07 04:02:17;;;;;;;15.70;7.90;;;;;;;32.91;44.05;99312.94;5042707;28;20047;-71
2023/07/07 04:04:43;;;;;;;18.30;7.97;;;;;;;33.02;44.28;99311.56;5042500;28;20036;-71
2023/07/07 04:07:13;;;;;;;13.05;7.55;;;;;;;33.17;43.46;99313.94;5058552;28;20051;-71
2023/07/07 04:09:43;;;;;;;10.90;7.38;;;;;;;33.51;43.04;99314.19;5042663;28;20048;-71
2023/07/07 04:12:10;;;;;;;12.18;7.70;;;;;;;33.42;42.54;99318.00;5075823;28;20040;-71
2023/07/07 04:14:37;;;;;;;9.73;7.80;;;;;;;33.37;42.76;99316.19;5043146;28;20055;-71
2023/07/07 04:17:04;;;;;;;13.02;7.68;;;;;;;33.23;43.10;99306.38;5059416;28;20046;-71
2023/07/07 04:19:31;;;;;;;13.05;8.00;;;;;;;33.23;43.28;99309.94;5059038;28;20043;-71
2023/07/07 04:21:58;;;;;;;10.05;7.53;;;;;;;33.47;42.74;99323.41;5042577;28;20032;-71
2023/07/07 04:24:27;;;;;;;12.48;7.45;;;;;;;33.36;42.81;99319.25;5058978;28;20032;-71
2023/07/07 04:26:54;;;;;;;14.65;7.18;;;;;;;33.52;42.55;99307.53;5058911;28;20359;-71
2023/07/07 04:29:21;;;;;;;10.02;7.40;;;;;;;33.42;42.86;99320.78;5020479;28;20105;-71
2023/07/07 04:31:49;;;;;;;11.38;7.20;;;;;;;33.73;42.59;99321.59;5004974;28;20135;-71
2023/07/07 04:34:17;;;;;;;11.98;6.85;;;;;;;33.63;42.70;99313.63;5021492;28;20036;-71
2023/07/07 04:36:45;;;;;;;10.10;6.80;;;;;;;33.51;42.65;99316.13;5021456;28;20040;-71
2023/07/07 04:39:11;;;;;;;11.88;7.15;;;;;;;33.43;42.15;99331.47;5022066;28;20036;-71
2023/07/07 04:41:37;;;;;;;13.07;7.55;;;;;;;33.34;42.57;99321.50;5038862;28;20127;-71
2023/07/07 04:44:04;;;;;;;11.63;7.05;;;;;;;33.53;42.52;99333.16;5005265;28;20515;-72
2023/07/07 04:46:33;;;;;;;11.50;7.30;;;;;;;33.71;42.19;99319.16;5038081;28;20121;-71
2023/07/07 04:49:06;;;;;;;11.25;7.07;;;;;;;33.63;42.58;99327.38;5021043;28;20143;-71
2023/07/07 04:51:37;;;;;;;12.18;7.10;;;;;;;33.74;42.29;99336.97;5038137;28;20208;-71
2023/07/07 04:54:07;;;;;;;10.45;7.07;;;;;;;33.77;42.77;99330.84;5020588;28;20094;-71
2023/07/07 04:56:33;;;;;;;15.57;7.88;;;;;;;33.78;42.24;99315.94;5037455;28;20130;-71
2023/07/07 04:59:00;;;;;;;17.25;7.60;;;;;;;33.94;42.07;99322.69;5020484;28;20043;-72
2023/07/07 05:01:30;;;;;;;13.77;7.38;;;;;;;33.97;41.75;99306.34;5020589;28;20040;-71
2023/07/07 05:03:59;;;;;;;10.82;7.57;;;;;;;34.10;41.80;99318.38;5037954;28;20093;-71
2023/07/07 05:06:30;;;;;;;12.40;7.32;;;;;;;34.35;41.12;99325.09;5037852;28;20046;-71
2023/07/07 05:08:56;;;;;;;11.57;7.57;;;;;;;33.99;41.32;99306.00;5022287;28;20059;-71
2023/07/07 05:11:28;;;;;;;12.10;7.57;;;;;;;34.44;40.66;99339.75;5021633;28;20135;-72
2023/07/07 05:13:55;;;;;;;14.45;6.97;;;;;;;33.98;41.28;99310.69;5021146;28;20121;-71
2023/07/07 05:16:25;;;;;;;10.30;7.30;;;;;;;34.35;40.64;99341.63;5020857;28;20523;-71
2023/07/07 05:18:54;;;;;;;10.02;6.95;;;;;;;34.22;41.15;99337.88;5025691;28;20044;-71
2023/07/07 05:21:22;;;;;;;10.27;6.57;;;;;;;34.32;41.41;99337.59;5074930;28;20071;-71
2023/07/07 05:23:51;;;;;;;17.65;7.25;;;;;;;34.28;41.19;99317.28;5041414;28;20043;-71
2023/07/07 05:26:22;;;;;;;16.67;7.20;;;;;;;34.48;40.73;99327.75;5041670;28;20128;-71
2023/07/07 05:28:51;;;;;;;11.98;7.80;;;;;;;34.22;41.14;99315.81;5058200;28;20067;-71
2023/07/07 05:31:20;;;;;;;13.00;7.13;;;;;;;34.29;40.87;99309.84;5075006;28;20067;-71
2023/07/07 05:33:47;;;;;;;11.73;7.10;;;;;;;34.58;40.45;99285.25;5041158;28;20040;-72
2023/07/07 05:36:14;;;;;;;18.10;7.80;;;;;;;34.58;40.36;99272.28;5058037;28;20070;-73
2023/07/07 05:38:43;;;;;;;12.23;7.32;;;;;;;34.60;40.07;99278.25;5041111;28;20031;-71
2023/07/07 05:41:11;;;;;;;23.10;10.43;;;;;;;34.58;39.65;99277.78;5040631;28;20036;-71
2023/07/07 05:43:43;;;;;;;14.95;9.57;;;;;;;34.68;39.66;99280.22;5075098;28;20038;-71
2023/07/07 05:46:15;;;;;;;15.48;8.30;;;;;;;34.60;39.94;99278.25;5041426;28;20130;-71
2023/07/07 05:48:41;;;;;;;15.85;7.35;;;;;;;34.26;40.67;99280.16;5041570;28;20433;-71
2023/07/07 05:51:15;;;;;;;8.93;6.35;;;;;;;34.31;40.75;99285.47;5040896;28;20467;-71
2023/07/07 05:53:44;;;;;;;15.13;6.70;;;;;;;34.24;40.69;99295.03;5040844;28;20128;-71
2023/07/07 05:56:20;;;;;;;12.15;6.63;;;;;;;34.30;40.97;99292.97;5042448;28;20333;-71
2023/07/07 05:58:48;;;;;;;10.68;6.60;;;;;;;34.37;40.30;99286.97;5059433;28;20436;-72
2023/07/07 06:01:15;;;;;;;17.13;7.10;;;;;;;34.51;39.82;99284.91;5058649;28;20093;-71
2023/07/07 06:03:42;;;;;;;12.38;7.32;;;;;;;34.29;40.61;99283.06;5041079;28;20036;-71
2023/07/07 06:06:11;;;;;;;17.08;6.90;;;;;;;34.29;40.78;99298.81;5074279;28;20032;-71
2023/07/07 06:08:39;;;;;;;13.43;7.05;;;;;;;34.58;40.61;99275.03;5040781;28;20131;-71
2023/07/07 06:11:06;;;;;;;10.10;6.45;;;;;;;34.66;39.91;99263.16;5056642;28;20073;-71
2023/07/07 06:13:32;;;;;;;10.73;6.18;;;;;;;34.98;38.82;99273.72;5039843;28;20129;-71
2023/07/07 06:15:59;;;;;;;12.85;6.07;;;;;;;35.15;38.41;99281.19;5023171;28;20077;-71
2023/07/07 06:18:26;;;;;;;15.25;6.30;;;;;;;34.94;38.90;99278.28;5023538;28;20101;-71
2023/07/07 06:20:55;;;;;;;17.13;6.68;;;;;;;35.25;38.71;99270.63;5040235;28;20040;-71
2023/07/07 06:23:22;;;;;;;11.55;6.97;;;;;;;35.25;39.27;99270.63;5039851;28;20367;-71
2023/07/07 06:25:49;;;;;;;17.08;7.30;;;;;;;35.20;39.15;99268.00;5023184;28;20383;-72
2023/07/07 06:28:18;;;;;;;15.27;7.45;;;;;;;35.34;39.24;99276.09;5016480;28;20055;-71
2023/07/07 06:30:47;;;;;;;14.38;8.00;;;;;;;35.29;39.18;99288.13;5016499;28;20129;-71
2023/07/07 06:33:14;;;;;;;12.38;8.00;;;;;;;34.99;39.81;99278.13;4983866;28;20123;-71
2023/07/07 06:35:42;;;;;;;11.25;7.15;;;;;;;35.41;39.69;99280.00;4999945;28;20033;-71
2023/07/07 06:38:12;;;;;;;15.20;7.72;;;;;;;35.16;39.34;99269.00;5016374;28;20064;-71
2023/07/07 06:40:38;;;;;;;17.15;6.85;;;;;;;35.21;38.82;99282.66;5049416;28;20033;-71
2023/07/07 06:43:04;;;;;;;10.05;7.00;;;;;;;35.16;39.37;99269.81;4987147;28;20176;-71
2023/07/07 06:45:34;;;;;;;12.48;7.20;;;;;;;35.18;39.63;99278.56;5020105;28;20364;-71
2023/07/07 06:48:02;;;;;;;14.23;6.97;;;;;;;35.15;39.14;99259.91;5036533;28;20123;-71
2023/07/07 06:50:30;;;;;;;12.57;6.80;;;;;;;35.37;38.71;99261.66;5003580;28;20075;-71
2023/07/07 06:52:58;;;;;;;12.93;6.90;;;;;;;35.30;39.14;99269.63;5021701;28;20036;-71
2023/07/07 06:55:24;;;;;;;10.60;6.28;;;;;;;35.23;38.38;99283.94;5036155;28;20169;-71
2023/07/07 06:57:50;;;;;;;11.13;6.53;;;;;;;35.34;38.12;99285.22;5019896;28;20492;-73
2023/07/07 07:00:21;;;;;;;11.60;7.40;;;;;;;35.48;38.85;99288.63;5023994;28;20051;-71
2023/07/07 07:02:47;;;;;;;19.13;7.03;;;;;;;35.54;38.71;99287.31;5060125;28;20137;-71
2023/07/07 07:05:14;;;;;;;13.95;7.22;;;;;;;35.40;38.22;99302.44;4983580;28;20096;-71
2023/07/07 07:07:39;;;;;;;12.45;7.15;;;;;;;35.45;38.27;99303.09;4999800;28;20119;-71
2023/07/07 07:10:08;;;;;;;21.48;8.90;;;;;;;35.32;38.80;99311.53;4999773;28;20454;-71
2023/07/07 07:12:37;;;;;;;21.13;8.00;;;;;;;35.39;38.71;99322.94;5000121;28;20045;-71
2023/07/07 07:15:07;;;;;;;11.80;7.70;;;;;;;35.20;39.37;99323.25;4999836;28;20049;-71
2023/07/07 07:17:33;;;;;;;15.77;7.85;;;;;;;35.14;39.62;99330.06;4999468;28;20124;-71
2023/07/07 07:20:00;;;;;;;16.50;8.43;;;;;;;35.22;39.16;99339.50;4944769;28;20056;-71
2023/07/07 07:22:28;;;;;;;21.20;8.25;;;;;;;35.04;40.22;99337.88;4957346;28;20049;-71
2023/07/07 07:24:55;;;;;;;15.90;7.68;;;;;;;34.70;41.44;99369.00;4925711;28;20375;-71
2023/07/07 07:27:23;;;;;;;8.93;6.80;;;;;;;34.48;41.68;99380.16;4960516;28;20486;-71
2023/07/07 07:29:55;;;;;;;14.43;7.20;;;;;;;34.40;42.33;99360.84;4961195;28;20046;-71
2023/07/07 07:32:23;;;;;;;15.10;7.50;;;;;;;34.19;42.71;99386.19;4945306;28;20061;-71
2023/07/07 07:34:54;;;;;;;12.73;8.55;;;;;;;33.95;43.68;99401.50;4993488;28;20060;-71
2023/07/07 07:37:21;;;;;;;16.75;8.07;;;;;;;33.85;45.34;99398.97;4979880;28;20184;-71
2023/07/07 07:39:49;;;;;;;12.60;8.30;;;;;;;33.83;45.00;99377.25;4980624;28;20054;-71
2023/07/07 07:42:15;;;;;;;13.27;7.65;;;;;;;33.83;44.62;99399.28;4963614;28;20343;-72
2023/07/07 07:44:43;;;;;;;14.90;8.45;;;;;;;33.94;44.88;99419.97;4963564;28;20592;-71
2023/07/07 07:47:09;;;;;;;12.18;8.27;;;;;;;34.14;44.92;99429.63;4979505;28;20069;-71
2023/07/07 07:49:38;;;;;;;14.52;8.32;;;;;;;34.08;44.48;99428.13;4940908;28;20108;-71
2023/07/07 07:52:05;;;;;;;16.25;9.07;;;;;;;34.00;45.29;99412.38;4958836;28;20042;-71
2023/07/07 07:54:32;;;;;;;11.68;8.52;;;;;;;33.87;45.85;99432.53;5013909;28;20037;-70
2023/07/07 07:57:03;;;;;;;12.85;8.52;;;;;;;34.01;45.87;99425.81;4983182;28;20044;-72
2023/07/07 07:59:29;;;;;;;12.10;8.90;;;;;;;33.71;45.68;99445.88;4983266;28;20497;-72
2023/07/07 08:01:56;;;;;;;13.75;8.70;;;;;;;33.35;46.82;99441.53;4998873;28;20037;-72
2023/07/07 08:04:25;;;;;;;11.68;9.13;;;;;;;33.41;46.82;99437.56;4998105;28;20048;-71
2023/07/07 08:06:54;;;;;;;12.00;8.70;;;;;;;33.29;46.94;99435.31;5002114;28;20045;-71
2023/07/07 08:09:24;;;;;;;15.90;8.63;;;;;;;33.43;46.04;99416.03;5018542;28;20060;-71
2023/07/07 08:12:17;;;;;;;15.18;8.90;;;;;;;33.54;45.70;99425.66;4986343;28;20037;-71
2023/07/07 08:14:43;;;;;;;11.38;8.65;;;;;;;33.36;45.09;99410.94;5002088;28;20048;-71
2023/07/07 08:17:15;;;;;;;12.80;8.40;;;;;;;33.63;45.30;99386.03;5031507;28;20053;-71
2023/07/07 08:19:48;;;;;;;16.55;8.60;;;;;;;33.93;44.22;99367.91;5023873;28;20376;-71
2023/07/07 08:22:22;;;;;;;14.57;8.60;;;;;;;34.06;43.92;99361.47;5025797;28;20471;-71
2023/07/07 08:24:52;;;;;;;13.10;9.18;;;;;;;33.86;44.89;99345.50;5074886;28;20129;-71
2023/07/07 08:27:19;;;;;;;11.40;8.18;;;;;;;33.97;44.44;99346.84;5041738;28;20062;-72
2023/07/07 08:29:48;;;;;;;11.80;7.90;;;;;;;33.88;44.40;99348.72;5017892;28;20492;-71
2023/07/07 08:32:18;;;;;;;10.80;7.68;;;;;;;33.94;43.89;99340.03;5001638;28;20441;-71
2023/07/07 08:34:47;;;;;;;13.55;8.27;;;;;;;34.27;43.62;99332.22;5001831;28;20147;-71
2023/07/07 08:37:17;;;;;;;13.53;8.00;;;;;;;34.66;42.87;99299.03;5018063;28;20036;-71
2023/07/07 08:39:45;;;;;;;11.38;7.72;;;;;;;35.32;41.25;99284.72;5001516;28;20045;-71
2023/07/07 08:42:23;;;;;;;10.73;6.53;;;;;;;35.91;39.04;99284.88;5001506;28;20037;-72
2023/07/07 08:44:51;;;;;;;10.82;6.50;;;;;;;36.62;37.25;99292.13;5034464;28;20110;-72
2023/07/07 08:47:45;;;;;;;9.93;5.80;;;;;;;37.65;34.98;99305.84;5021608;28;20105;-72
2023/07/07 08:50:28;;;;;;;8.80;6.30;;;;;;;38.25;33.26;99300.41;5054597;28;20052;-72
2023/07/07 08:53:30;;;;;;;10.15;6.10;;;;;;;38.35;32.16;99309.06;5040028;28;20037;-71
2023/07/07 08:56:07;;;;;;;15.70;6.97;;;;;;;38.24;32.35;99313.47;5021694;28;20098;-71
2023/07/07 08:58:42;;;;;;;8.40;6.68;;;;;;;37.96;33.20;99311.72;5021295;28;20079;-72
2023/07/07 09:01:47;;;;;;;6.80;5.78;;;;;;;37.91;32.44;99303.59;5061248;28;20059;-72
2023/07/07 09:04:41;;;;;;;11.05;6.13;;;;;;;37.93;32.43;99295.75;5077078;28;20059;-72
2023/07/07 09:07:19;;;;;;;12.25;6.32;;;;;;;37.97;32.29;99316.91;5077096;28;20050;-72
2023/07/07 09:10:29;;;;;;;6.97;5.93;;;;;;;37.57;33.24;99307.56;5094234;28;20097;-72
2023/07/07 09:13:05;;;;;;;10.23;7.63;;;;;;;37.22;34.09;99322.94;5059945;28;20040;-72
2023/07/07 09:15:36;;;;;;;;;;;;;;;37.02;34.86;99329.28;5034054;28;20563;-71
2023/07/07 09:18:23;;;;;;;9.50;6.90;;;;;;;36.69;35.69;99311.78;4991155;28;19924;-71
2023/07/07 09:21:00;;;;;;;11.63;7.22;;;;;;;36.25;36.89;99323.44;4936617;29;20287;-71
2023/07/07 09:23:35;;;;;;;17.40;7.32;;;;;;;36.21;37.47;99303.94;4949217;28;20039;-72
2023/07/07 09:26:07;;;;;;;12.38;7.60;;;;;;;36.44;36.90;99323.84;4916613;29;20074;-72
2023/07/07 09:28:40;;;;;;;11.85;7.07;;;;;;;36.37;37.44;99309.72;4917680;29;20047;-72
2023/07/07 09:31:23;;;;;;;12.95;7.65;;;;;;;36.81;36.34;99320.97;4931896;29;20058;-72
2023/07/07 09:33:51;;;;;;;13.57;7.30;;;;;;;36.81;36.29;99315.44;4898254;29;20518;-71
2023/07/07 09:36:29;;;;;;;11.65;7.30;;;;;;;37.59;34.51;99319.13;4917126;29;20142;-72
2023/07/07 09:39:20;;;;;;;16.48;7.25;;;;;;;38.21;33.15;99330.00;4917318;29;20058;-72
2023/07/07 09:42:15;;;;;;;16.20;7.53;;;;;;;38.78;32.12;99338.16;4917372;29;20039;-72
2023/07/07 09:44:48;;;;;;;10.05;6.10;;;;;;;39.12;31.28;99326.53;4933366;29;20051;-71
2023/07/07 09:47:57;;;;;;;16.33;6.95;;;;;;;39.61;30.95;99333.47;4932872;29;20071;-71
2023/07/07 09:50:36;;;;;;;14.45;6.40;;;;;;;40.39;29.37;99339.91;4919717;29;20039;-71
2023/07/07 09:53:15;;;;;;;14.60;6.38;;;;;;;41.63;27.48;99342.22;4946474;28;20556;-72
2023/07/07 09:55:42;;;;;;;;;;;;;;;43.15;25.40;99342.69;4975188;28;20043;-72
2023/07/07 09:58:23;;;;;;;15.68;6.18;;;;;;;43.89;23.74;99354.72;4958597;28;19921;-72
2023/07/07 10:00:55;;;;;;;16.77;6.30;;;;;;;43.75;23.90;99346.19;4990755;28;20058;-72
2023/07/07 10:03:47;;;;;;;18.80;6.63;;;;;;;44.21;22.95;99356.63;4974570;28;20034;-71
2023/07/07 10:06:54;;;;;;;11.63;5.90;;;;;;;45.23;22.24;99359.31;5014319;28;20514;-71
2023/07/07 10:09:20;;;;;;;11.98;5.18;;;;;;;46.02;21.42;99331.88;4996529;28;20076;-72
2023/07/07 10:11:46;;;;;;;6.80;4.53;;;;;;;47.25;19.23;99345.72;4973397;28;20049;-71
2023/07/07 10:14:15;;;;;;;7.15;4.10;;;;;;;47.93;18.09;99341.31;4974288;28;20058;-72
2023/07/07 10:17:30;;;;;;;9.57;4.30;;;;;;;47.36;18.24;99338.03;4989870;28;20463;-72
2023/07/07 10:20:01;;;;;;;6.70;4.40;;;;;;;46.17;19.55;99328.69;4956866;28;20038;-73
2023/07/07 10:22:30;;;;;;;4.90;3.10;;;;;;;45.17;19.25;99327.22;4975122;28;20054;-71
2023/07/07 10:25:01;;;;;;;6.35;3.35;;;;;;;44.65;19.84;99334.19;4924375;28;20058;-72
2023/07/07 10:27:29;;;;;;;7.63;3.10;;;;;;;43.86;20.15;99319.09;4909631;28;20471;-72
2023/07/07 10:30:00;;;;;;;7.50;3.27;;;;;;;43.40;20.84;99318.63;4958715;28;20097;-71
2023/07/07 10:32:29;;;;;;;7.80;3.70;;;;;;;42.56;22.54;99304.34;4927076;28;20062;-72
2023/07/07 10:35:03;;;;;;;6.10;4.20;;;;;;;42.05;23.39;99288.34;4942558;28;20046;-72
2023/07/07 10:37:34;;;;;;;7.10;4.15;;;;;;;41.34;24.44;99295.44;4927973;28;20085;-71
2023/07/07 10:40:02;;;;;;;6.78;3.25;;;;;;;40.75;23.82;99302.56;4950569;28;20050;-71
2023/07/07 10:42:33;;;;;;;5.82;2.70;;;;;;;39.86;23.99;99321.03;4986543;28;20381;-73
2023/07/07 10:45:03;;;;;;;5.80;4.15;;;;;;;39.08;24.90;99320.03;4984591;28;20124;-71
2023/07/07 10:47:36;;;;;;;12.48;3.90;;;;;;;38.52;27.38;99333.00;5017143;28;20077;-74
2023/07/07 10:50:20;;;;;;;4.20;3.60;;;;;;;38.74;27.01;99330.53;5001736;28;20541;-73
2023/07/07 10:53:14;;;;;;;3.97;2.70;;;;;;;38.32;25.53;99315.31;5016618;28;20042;-71
2023/07/07 10:56:18;;;;;;;4.47;3.42;;;;;;;38.25;26.99;99265.16;4984254;28;20037;-71
2023/07/07 10:58:54;;;;;;;5.13;2.97;;;;;;;38.32;26.45;99247.91;5000222;28;20465;-71
2023/07/07 11:01:55;;;;;;;5.10;3.40;;;;;;;38.89;26.00;99251.22;4987591;28;20131;-71
2023/07/07 11:04:30;;;;;;;9.55;3.60;;;;;;;38.87;25.73;99245.22;5020112;28;20414;-72
2023/07/07 11:06:59;;;;;;;4.95;3.10;;;;;;;38.76;24.65;99246.88;5004706;28;20412;-72
2023/07/07 11:09:46;;;;;;;7.55;3.53;;;;;;;38.78;25.27;99250.13;5020741;28;20037;-71
2023/07/07 11:12:41;;;;;;;8.30;3.85;;;;;;;39.24;24.50;99257.81;5020412;28;20384;-71
2023/07/07 11:15:48;;;;;;;4.53;3.15;;;;;;;39.24;24.17;99282.00;5023504;28;20037;-72
2023/07/07 11:18:23;;;;;;;5.78;3.30;;;;;;;39.28;24.48;99289.28;5057390;28;20095;-72
2023/07/07 11:21:27;;;;;;;4.05;3.28;;;;;;;39.24;24.70;99291.16;5041892;28;20082;-71
2023/07/07 11:24:49;;;;;;;10.60;3.63;;;;;;;39.07;25.80;99302.59;5078283;28;20096;-72
2023/07/07 11:27:34;;;;;;;18.17;4.63;;;;;;;38.62;26.58;99293.66;4964893;28;20041;-71
2023/07/07 11:30:33;;;;;;;7.35;3.72;;;;;;;38.40;27.76;99285.81;4981130;28;20038;-72
2023/07/07 11:33:44;;;;;;;5.65;3.67;;;;;;;38.56;27.70;99259.81;5060922;28;20044;-72
2023/07/07 11:36:29;;;;;;;9.70;4.00;;;;;;;38.52;28.14;99244.19;5039230;28;20063;-72
2023/07/07 11:39:15;;;;;;;6.90;3.97;;;;;;;38.43;28.44;99238.75;5056817;28;20526;-72
2023/07/07 11:42:12;;;;;;;10.32;6.00;;;;;;;38.77;28.91;99237.38;5039518;28;20181;-72
2023/07/07 11:45:05;;;;;;;12.43;5.53;;;;;;;38.60;29.34;99232.94;5055908;28;20063;-71
2023/07/07 11:47:34;;;;;;;10.88;5.78;;;;;;;38.00;30.34;99229.41;5037857;28;20043;-72
2023/07/07 11:50:31;;;;;;;14.40;6.68;;;;;;;38.39;30.03;99254.50;5057679;28;20048;-72
2023/07/07 11:53:14;;;;;;;13.65;6.90;;;;;;;38.05;31.05;99260.50;5039486;28;20049;-72